createdAt,value
2018-06-03T00:01:16.127Z,13.33
2018-06-03T00:03:44.092Z,11.00
2018-06-03T00:06:11.694Z,13.17
2018-06-03T00:08:39.228Z,13.20
2018-06-03T00:11:06.827Z,11.97
2018-06-03T00:13:34.443Z,13.93
2018-06-03T00:16:02.010Z,11.13
2018-06-03T00:18:29.467Z,9.47
2018-06-03T00:21:02.531Z,11.57
2018-06-03T00:23:30.099Z,11.17
2018-06-03T00:25:57.798Z,11.17
2018-06-03T00:28:25.354Z,15.17
2018-06-03T00:30:53.092Z,13.77
2018-06-03T00:33:20.727Z,13.47
2018-06-03T00:35:53.660Z,11.73
2018-06-03T00:38:21.420Z,12.50
2018-06-03T00:40:48.932Z,12.87
2018-06-03T00:43:16.652Z,11.27
2018-06-03T00:45:44.191Z,11.13
2018-06-03T00:48:11.709Z,10.70
2018-06-03T00:50:39.305Z,10.00
2018-06-03T00:53:07.009Z,15.07
2018-06-03T00:55:34.760Z,12.47
2018-06-03T00:58:02.306Z,10.83
2018-06-03T01:00:30.081Z,10.67
2018-06-03T01:02:57.612Z,10.00
2018-06-03T01:05:25.140Z,10.07
2018-06-03T01:07:52.703Z,11.73
2018-06-03T01:10:20.395Z,16.57
2018-06-03T01:12:48.038Z,8.43
2018-06-03T01:15:15.605Z,13.50
2018-06-03T01:17:43.293Z,9.60
2018-06-03T01:20:10.951Z,14.90
2018-06-03T01:22:38.416Z,15.80
2018-06-03T01:25:06.009Z,8.20
2018-06-03T01:27:33.604Z,9.77
2018-06-03T01:30:01.294Z,8.53
2018-06-03T01:32:29.483Z,8.27
2018-06-03T01:34:56.982Z,10.87
2018-06-03T01:37:24.479Z,12.50
2018-06-03T01:39:52.187Z,10.13
2018-06-03T01:42:19.700Z,13.03
2018-06-03T01:44:47.460Z,9.70
2018-06-03T01:47:14.968Z,8.93
2018-06-03T01:49:42.443Z,17.63
2018-06-03T01:52:10.101Z,10.67
2018-06-03T01:54:37.861Z,11.63
2018-06-03T01:57:05.489Z,10.63
2018-06-03T01:59:32.903Z,13.33
2018-06-03T02:02:00.560Z,9.30
2018-06-03T02:04:28.040Z,8.80
2018-06-03T02:06:55.636Z,9.57
2018-06-03T02:09:23.060Z,10.07
2018-06-03T02:11:50.747Z,9.50
2018-06-03T02:14:18.299Z,8.33
2018-06-03T02:16:45.913Z,9.57
2018-06-03T02:19:13.337Z,8.17
2018-06-03T02:21:40.852Z,10.20
2018-06-03T02:24:08.408Z,9.20
2018-06-03T02:26:36.101Z,7.70
2018-06-03T02:29:03.731Z,8.43
2018-06-03T02:31:31.307Z,9.37
2018-06-03T02:33:58.854Z,9.63
2018-06-03T02:36:27.392Z,12.33
2018-06-03T02:38:54.936Z,10.17
2018-06-03T02:41:22.474Z,11.17
2018-06-03T02:43:50.056Z,9.47
2018-06-03T02:46:18.709Z,11.07
2018-06-03T02:48:46.252Z,13.30
2018-06-03T02:51:13.709Z,12.70
2018-06-03T02:53:41.216Z,11.67
2018-06-03T02:56:08.909Z,10.80
2018-06-03T02:58:36.558Z,11.07
2018-06-03T03:01:04.044Z,11.73
2018-06-03T03:03:31.660Z,12.30
2018-06-03T03:05:59.250Z,9.60
2018-06-03T03:08:27.336Z,12.47
2018-06-03T03:10:54.925Z,12.87
2018-06-03T03:13:22.993Z,14.73
2018-06-03T03:15:50.520Z,10.97
2018-06-03T03:18:18.673Z,10.77
2018-06-03T03:20:46.333Z,12.73
2018-06-03T03:23:13.956Z,10.33
2018-06-03T03:25:41.732Z,9.50
2018-06-03T03:28:09.249Z,8.93
2018-06-03T03:30:36.780Z,11.43
2018-06-03T03:33:04.339Z,9.67
2018-06-03T03:35:32.112Z,12.10
2018-06-03T03:37:59.724Z,13.20
2018-06-03T03:40:27.479Z,15.63
2018-06-03T03:42:55.049Z,9.33
2018-06-03T03:45:22.511Z,12.60
2018-06-03T03:47:50.016Z,9.97
2018-06-03T03:50:17.746Z,10.37
2018-06-03T03:52:45.187Z,11.17
2018-06-03T03:55:12.677Z,10.13
2018-06-03T03:57:40.244Z,11.17
2018-06-03T04:00:07.765Z,10.63
2018-06-03T04:02:35.403Z,7.63
2018-06-03T04:05:02.884Z,11.37
2018-06-03T04:07:30.383Z,12.47
2018-06-03T04:09:57.878Z,11.67
2018-06-03T04:12:25.288Z,7.50
2018-06-03T04:14:52.779Z,11.60
2018-06-03T04:17:20.283Z,7.23
2018-06-03T04:19:47.825Z,7.87
2018-06-03T04:22:15.391Z,12.17
2018-06-03T04:24:42.981Z,9.50
2018-06-03T04:27:10.540Z,10.50
2018-06-03T04:29:38.128Z,9.50
2018-06-03T04:32:05.769Z,6.57
2018-06-03T04:34:33.162Z,6.37
2018-06-03T04:37:01.063Z,10.10
2018-06-03T04:39:28.547Z,8.43
2018-06-03T04:41:56.046Z,8.20
2018-06-03T04:44:23.554Z,6.57
2018-06-03T04:46:51.047Z,5.47
2018-06-03T04:49:18.576Z,7.97
2018-06-03T04:51:46.181Z,7.40
2018-06-03T04:54:13.645Z,12.07
2018-06-03T04:56:41.180Z,8.90
2018-06-03T04:59:08.593Z,6.50
2018-06-03T05:01:36.105Z,7.77
2018-06-03T05:04:03.645Z,7.73
2018-06-03T05:06:31.985Z,11.13
2018-06-03T05:08:59.418Z,7.30
2018-06-03T05:11:26.807Z,8.33
2018-06-03T05:13:54.487Z,7.97
2018-06-03T05:16:23.989Z,7.63
2018-06-03T05:18:51.486Z,8.90
2018-06-03T05:21:19.043Z,9.07
2018-06-03T05:23:46.593Z,9.73
2018-06-03T05:26:14.115Z,10.27
2018-06-03T05:28:41.658Z,10.67
2018-06-03T05:31:09.211Z,9.00
2018-06-03T05:33:36.808Z,12.03
2018-06-03T05:36:04.307Z,9.40
2018-06-03T05:38:31.837Z,8.33
2018-06-03T05:40:59.335Z,7.63
2018-06-03T05:43:26.914Z,7.43
2018-06-03T05:45:54.473Z,7.80
2018-06-03T05:48:21.969Z,8.90
2018-06-03T05:50:49.443Z,9.30
2018-06-03T05:53:16.871Z,9.03
2018-06-03T05:55:44.538Z,7.53
2018-06-03T05:58:12.303Z,8.20
2018-06-03T06:00:39.907Z,7.77
2018-06-03T06:03:07.804Z,8.43
2018-06-03T06:05:35.236Z,6.60
2018-06-03T06:08:02.628Z,9.20
2018-06-03T06:10:30.095Z,7.60
2018-06-03T06:12:57.501Z,10.63
2018-06-03T06:15:25.204Z,8.13
2018-06-03T06:17:52.736Z,7.40
2018-06-03T06:20:20.221Z,6.83
2018-06-03T06:22:47.702Z,6.43
2018-06-03T06:25:15.272Z,6.33
2018-06-03T06:27:42.811Z,7.87
2018-06-03T06:30:10.402Z,6.60
2018-06-03T06:32:37.780Z,8.60
2018-06-03T06:35:05.193Z,5.85
2018-06-03T06:37:32.653Z,6.67
2018-06-03T06:40:00.150Z,9.10
2018-06-03T06:42:27.592Z,6.80
2018-06-03T06:44:54.981Z,5.42
2018-06-03T06:47:22.492Z,7.60
2018-06-03T06:49:49.899Z,5.00
2018-06-03T06:52:17.408Z,4.45
2018-06-03T06:54:44.980Z,5.17
2018-06-03T06:57:13.587Z,5.95
2018-06-03T06:59:41.019Z,7.03
2018-06-03T07:02:08.619Z,5.35
2018-06-03T07:04:36.177Z,8.00
2018-06-03T07:07:03.797Z,4.50
2018-06-03T07:09:31.385Z,4.30
2018-06-03T07:11:59.204Z,4.90
2018-06-03T07:14:26.841Z,5.03
2018-06-03T07:16:54.484Z,7.08
2018-06-03T07:19:22.052Z,4.50
2018-06-03T07:21:49.668Z,5.03
2018-06-03T07:24:17.116Z,4.67
2018-06-03T07:26:44.572Z,4.25
2018-06-03T07:29:12.007Z,4.83
2018-06-03T07:31:39.498Z,5.50
2018-06-03T07:34:07.030Z,6.25
2018-06-03T07:36:34.471Z,4.45
2018-06-03T07:39:01.971Z,5.70
2018-06-03T07:41:29.447Z,5.25
2018-06-03T07:43:56.981Z,4.95
2018-06-03T07:46:24.364Z,4.47
2018-06-03T07:48:51.970Z,4.55
2018-06-03T07:51:19.378Z,5.97
2018-06-03T07:53:47.144Z,5.20
2018-06-03T07:56:14.621Z,4.17
2018-06-03T07:58:42.093Z,3.67
2018-06-03T08:01:09.494Z,4.67
2018-06-03T08:03:36.911Z,4.10
2018-06-03T08:06:04.468Z,5.45
2018-06-03T08:08:31.832Z,5.60
2018-06-03T08:10:59.330Z,4.47
2018-06-03T08:13:26.808Z,4.75
2018-06-03T08:15:54.233Z,4.15
2018-06-03T08:18:21.717Z,7.55
2018-06-03T08:20:49.103Z,3.62
2018-06-03T08:23:16.502Z,6.20
2018-06-03T08:25:43.953Z,6.40
2018-06-03T08:28:11.582Z,3.77
2018-06-03T08:30:39.053Z,3.45
2018-06-03T08:33:06.464Z,3.05
2018-06-03T08:35:33.912Z,4.33
2018-06-03T08:38:01.425Z,3.55
2018-06-03T08:40:28.885Z,3.35
2018-06-03T08:42:56.308Z,4.03
2018-06-03T08:45:23.860Z,4.50
2018-06-03T08:47:51.282Z,2.85
2018-06-03T08:50:18.766Z,5.37
2018-06-03T08:52:46.195Z,2.75
2018-06-03T08:55:13.572Z,2.85
2018-06-03T08:57:41.062Z,2.90
2018-06-03T09:00:08.547Z,3.62
2018-06-03T09:02:35.985Z,6.10
2018-06-03T09:05:03.494Z,2.58
2018-06-03T09:07:30.955Z,5.53
2018-06-03T09:09:58.420Z,6.20
2018-06-03T09:12:25.858Z,6.70
2018-06-03T09:14:53.329Z,2.60
2018-06-03T09:17:20.809Z,3.02
2018-06-03T09:19:48.252Z,4.42
2018-06-03T09:22:15.718Z,2.95
2018-06-03T09:24:43.120Z,4.67
2018-06-03T09:27:10.542Z,2.45
2018-06-03T09:29:37.902Z,4.72
2018-06-03T09:32:05.340Z,2.85
2018-06-03T09:34:32.851Z,3.05
2018-06-03T09:37:00.349Z,4.00
2018-06-03T09:39:27.780Z,3.22
2018-06-03T09:41:55.292Z,2.45
2018-06-03T09:44:22.771Z,5.25
2018-06-03T09:46:50.187Z,3.22
2018-06-03T09:49:17.569Z,4.45
2018-06-03T09:51:44.967Z,3.83
2018-06-03T09:54:12.408Z,6.95
2018-06-03T09:56:39.960Z,5.50
2018-06-03T09:59:07.348Z,5.83
2018-06-03T10:01:34.778Z,2.58
2018-06-03T10:04:02.204Z,4.80
2018-06-03T10:06:30.075Z,4.65
2018-06-03T10:08:57.627Z,4.35
2018-06-03T10:11:25.698Z,3.55
2018-06-03T10:13:53.150Z,2.52
2018-06-03T10:16:20.539Z,3.00
2018-06-03T10:18:48.081Z,3.40
2018-06-03T10:21:15.528Z,6.00
2018-06-03T10:23:43.023Z,3.33
2018-06-03T10:26:10.620Z,4.70
2018-06-03T10:28:38.081Z,5.58
2018-06-03T10:31:05.504Z,4.87
2018-06-03T10:33:32.994Z,2.85
2018-06-03T10:36:00.380Z,2.87
2018-06-03T10:38:27.932Z,4.53
2018-06-03T10:40:55.491Z,2.33
2018-06-03T10:43:23.004Z,4.35
2018-06-03T10:45:50.528Z,2.67
2018-06-03T10:48:18.149Z,4.40
2018-06-03T10:50:45.604Z,3.80
2018-06-03T10:53:13.069Z,2.50
2018-06-03T10:55:40.558Z,6.28
2018-06-03T10:58:08.019Z,4.28
2018-06-03T11:00:35.553Z,3.60
2018-06-03T11:03:02.922Z,5.10
2018-06-03T11:05:30.427Z,3.40
2018-06-03T11:07:57.857Z,2.50
2018-06-03T11:10:25.319Z,3.40
2018-06-03T11:12:52.749Z,3.33
2018-06-03T11:15:20.486Z,2.97
2018-06-03T11:17:47.952Z,5.47
2018-06-03T11:20:15.444Z,2.85
2018-06-03T11:22:42.911Z,3.08
2018-06-03T11:25:10.311Z,3.92
2018-06-03T11:27:44.376Z,2.55
2018-06-03T11:30:11.802Z,4.50
2018-06-03T11:32:39.814Z,2.33
2018-06-03T11:35:07.294Z,2.33
2018-06-03T11:37:34.825Z,6.50
2018-06-03T11:40:02.270Z,2.77
2018-06-03T11:42:29.681Z,3.27
2018-06-03T11:44:57.132Z,2.40
2018-06-03T11:47:24.638Z,3.80
2018-06-03T11:49:52.069Z,2.77
2018-06-03T11:52:19.481Z,4.97
2018-06-03T11:54:46.953Z,5.00
2018-06-03T11:57:14.543Z,2.50
2018-06-03T11:59:42.880Z,3.20
2018-06-03T12:02:10.747Z,2.97
2018-06-03T12:04:38.149Z,3.67
2018-06-03T12:07:05.574Z,6.50
2018-06-03T12:09:32.943Z,3.03
2018-06-03T12:12:00.413Z,2.73
2018-06-03T12:14:27.789Z,3.70
2018-06-03T12:16:55.196Z,2.40
2018-06-03T12:19:22.571Z,3.40
2018-06-03T12:21:50.525Z,3.40
2018-06-03T12:24:18.005Z,3.83
2018-06-03T12:26:45.475Z,3.27
2018-06-03T12:29:12.900Z,3.13
2018-06-03T12:31:40.333Z,3.53
2018-06-03T12:34:07.753Z,5.27
2018-06-03T12:36:35.140Z,5.03
2018-06-03T12:39:02.627Z,5.20
2018-06-03T12:41:30.102Z,4.10
2018-06-03T12:43:57.499Z,5.77
2018-06-03T12:46:24.996Z,2.63
2018-06-03T12:48:52.564Z,2.53
2018-06-03T12:51:19.995Z,5.00
2018-06-03T12:53:47.411Z,3.63
2018-06-03T12:56:14.921Z,3.00
2018-06-03T12:58:42.402Z,2.70
2018-06-03T13:01:09.888Z,3.67
2018-06-03T13:03:37.491Z,3.53
2018-06-03T13:06:05.042Z,3.60
2018-06-03T13:08:32.467Z,3.20
2018-06-03T13:10:59.899Z,3.17
2018-06-03T13:13:27.256Z,5.40
2018-06-03T13:15:54.707Z,3.67
2018-06-03T13:18:22.079Z,3.17
2018-06-03T13:20:49.496Z,4.00
2018-06-03T13:23:16.890Z,3.20
2018-06-03T13:25:44.338Z,3.40
2018-06-03T13:28:11.877Z,2.63
2018-06-03T13:30:39.288Z,2.80
2018-06-03T13:33:06.663Z,5.10
2018-06-03T13:35:34.077Z,3.97
2018-06-03T13:38:01.499Z,3.00
2018-06-03T13:40:28.922Z,5.33
2018-06-03T13:42:56.310Z,3.30
2018-06-03T13:45:23.843Z,4.13
2018-06-03T13:47:51.335Z,3.13
2018-06-03T13:50:18.727Z,2.80
2018-06-03T13:52:46.155Z,4.37
2018-06-03T13:55:13.534Z,4.33
2018-06-03T13:57:40.958Z,4.23
2018-06-03T14:00:08.363Z,3.70
2018-06-03T14:02:35.824Z,3.53
2018-06-03T14:05:03.204Z,4.60
2018-06-03T14:07:30.587Z,3.33
2018-06-03T14:09:58.040Z,3.63
2018-06-03T14:12:25.458Z,3.63
2018-06-03T14:14:52.824Z,2.53
2018-06-03T14:17:20.268Z,4.33
2018-06-03T14:19:47.616Z,3.50
2018-06-03T14:22:15.050Z,3.37
2018-06-03T14:24:42.473Z,3.27
2018-06-03T14:27:09.946Z,5.80
2018-06-03T14:29:37.329Z,3.83
2018-06-03T14:32:04.752Z,3.43
2018-06-03T14:34:32.166Z,3.40
2018-06-03T14:36:59.600Z,2.93
2018-06-03T14:39:26.950Z,4.47
2018-06-03T14:41:54.314Z,4.20
2018-06-03T14:44:21.738Z,5.73
2018-06-03T14:46:49.179Z,4.40
2018-06-03T14:49:16.602Z,2.70
2018-06-03T14:51:44.052Z,2.30
2018-06-03T14:54:11.529Z,2.53
2018-06-03T14:56:38.888Z,2.50
2018-06-03T14:59:06.361Z,4.23
2018-06-03T15:01:33.751Z,2.90
2018-06-03T15:04:01.131Z,2.53
2018-06-03T15:06:28.524Z,3.77
2018-06-03T15:08:55.914Z,2.83
2018-06-03T15:11:23.275Z,5.17
2018-06-03T15:13:50.689Z,2.83
2018-06-03T15:16:18.070Z,2.43
2018-06-03T15:18:45.479Z,3.57
2018-06-03T15:21:12.847Z,8.33
2018-06-03T15:23:40.267Z,3.20
2018-06-03T15:26:07.673Z,3.60
2018-06-03T15:28:35.117Z,2.30
2018-06-03T15:31:02.482Z,2.70
2018-06-03T15:33:29.855Z,4.90
2018-06-03T15:35:57.787Z,2.53
2018-06-03T15:38:25.212Z,2.13
2018-06-03T15:40:52.637Z,3.43
2018-06-03T15:43:20.056Z,4.27
2018-06-03T15:45:47.444Z,3.10
2018-06-03T15:48:14.834Z,6.97
2018-06-03T15:50:42.341Z,2.80
2018-06-03T15:53:09.690Z,3.43
2018-06-03T15:55:37.098Z,4.50
2018-06-03T15:58:04.513Z,3.10
2018-06-03T16:00:31.928Z,4.40
2018-06-03T16:02:59.415Z,3.70
2018-06-03T16:05:26.796Z,3.43
2018-06-03T16:07:54.232Z,5.57
2018-06-03T16:10:21.644Z,3.47
2018-06-03T16:12:49.079Z,7.10
2018-06-03T16:15:16.503Z,3.43
2018-06-03T16:17:44.211Z,7.10
2018-06-03T16:20:11.635Z,7.60
2018-06-03T16:22:39.055Z,2.87
2018-06-03T16:25:06.537Z,3.10
2018-06-03T16:27:34.072Z,2.90
2018-06-03T16:30:01.523Z,4.17
2018-06-03T16:32:29.236Z,6.50
2018-06-03T16:34:56.603Z,3.20
2018-06-03T16:37:23.974Z,5.80
2018-06-03T16:39:51.419Z,5.43
2018-06-03T16:42:18.841Z,3.13
2018-06-03T16:44:46.251Z,3.57
2018-06-03T16:47:13.716Z,2.70
2018-06-03T16:49:41.167Z,2.60
2018-06-03T16:52:08.577Z,3.87
2018-06-03T16:54:35.999Z,4.20
2018-06-03T16:57:03.372Z,2.57
2018-06-03T16:59:30.786Z,5.10
2018-06-03T17:01:58.222Z,4.03
2018-06-03T17:04:25.595Z,3.53
2018-06-03T17:06:53.101Z,3.53
2018-06-03T17:09:20.639Z,3.40
2018-06-03T17:11:48.130Z,2.80
2018-06-03T17:14:15.594Z,6.27
2018-06-03T17:16:42.991Z,3.90
2018-06-03T17:19:10.465Z,6.10
2018-06-03T17:21:38.001Z,5.97
2018-06-03T17:24:05.556Z,4.27
2018-06-03T17:26:32.964Z,5.77
2018-06-03T17:29:00.448Z,2.97
2018-06-03T17:31:27.868Z,4.47
2018-06-03T17:33:55.355Z,3.83
2018-06-03T17:36:22.882Z,7.47
2018-06-03T17:38:50.414Z,3.77
2018-06-03T17:41:17.771Z,5.27
2018-06-03T17:43:45.150Z,3.10
2018-06-03T17:46:12.555Z,3.97
2018-06-03T17:48:40.089Z,5.30
2018-06-03T17:51:07.542Z,4.47
2018-06-03T17:53:34.981Z,3.20
2018-06-03T17:56:02.373Z,7.37
2018-06-03T17:58:29.747Z,3.00
2018-06-03T18:00:57.132Z,3.33
2018-06-03T18:03:24.609Z,4.67
2018-06-03T18:05:52.080Z,3.67
2018-06-03T18:08:19.507Z,3.43
2018-06-03T18:10:46.935Z,3.53
2018-06-03T18:13:14.346Z,3.97
2018-06-03T18:15:41.819Z,5.00
2018-06-03T18:18:09.255Z,3.93
2018-06-03T18:20:36.665Z,3.40
2018-06-03T18:23:04.027Z,5.50
2018-06-03T18:25:31.513Z,7.13
2018-06-03T18:27:58.921Z,5.40
2018-06-03T18:30:26.323Z,4.13
2018-06-03T18:32:53.691Z,3.53
2018-06-03T18:35:21.143Z,6.33
2018-06-03T18:37:48.606Z,7.53
2018-06-03T18:40:16.008Z,7.43
2018-06-03T18:42:43.441Z,6.03
2018-06-03T18:45:10.867Z,4.17
2018-06-03T18:47:38.294Z,4.77
2018-06-03T18:50:05.722Z,4.70
2018-06-03T18:52:33.149Z,6.63
2018-06-03T18:55:00.638Z,3.10
2018-06-03T18:57:28.557Z,3.97
2018-06-03T18:59:56.007Z,4.10
2018-06-03T19:02:23.560Z,4.67
2018-06-03T19:04:51.102Z,3.87
2018-06-03T19:07:18.479Z,3.57
2018-06-03T19:09:45.901Z,3.27
2018-06-03T19:12:13.268Z,3.23
2018-06-03T19:14:40.605Z,7.23
2018-06-03T19:17:08.020Z,3.73
2018-06-03T19:19:35.439Z,7.57
2018-06-03T19:22:02.864Z,7.93
2018-06-03T19:24:30.325Z,3.40
2018-06-03T19:26:57.764Z,4.77
2018-06-03T19:29:25.170Z,4.73
2018-06-03T19:31:52.574Z,4.03
2018-06-03T19:34:20.143Z,4.80
2018-06-03T19:36:47.741Z,3.77
2018-06-03T19:39:15.275Z,3.93
2018-06-03T19:41:42.895Z,4.03
2018-06-03T19:44:10.424Z,7.20
2018-06-03T19:46:37.867Z,4.00
2018-06-03T19:49:05.892Z,3.70
2018-06-03T19:51:33.418Z,6.37
2018-06-03T19:54:00.917Z,3.80
2018-06-03T19:56:28.563Z,4.40
2018-06-03T19:58:56.035Z,6.90
2018-06-03T20:01:23.495Z,5.43
2018-06-03T20:03:51.068Z,9.73
2018-06-03T20:06:18.575Z,4.23
2018-06-03T20:08:46.002Z,8.30
2018-06-03T20:11:13.362Z,4.93
2018-06-03T20:13:40.747Z,3.80
2018-06-03T20:16:08.096Z,7.07
2018-06-03T20:18:35.508Z,4.30
2018-06-03T20:21:02.869Z,5.23
2018-06-03T20:23:30.220Z,5.50
2018-06-03T20:25:57.591Z,11.77
2018-06-03T20:28:24.955Z,6.53
2018-06-03T20:30:52.359Z,7.10
2018-06-03T20:33:19.727Z,9.43
2018-06-03T20:35:47.121Z,7.93
2018-06-03T20:38:14.450Z,9.50
2018-06-03T20:40:42.040Z,10.03
2018-06-03T20:43:09.403Z,10.37
2018-06-03T20:47:02.031Z,6.90
2018-06-03T20:49:29.396Z,9.13
2018-06-03T20:51:56.776Z,9.20
2018-06-03T20:54:24.119Z,6.67
2018-06-03T20:57:43.060Z,6.37
2018-06-03T21:00:11.626Z,14.37
2018-06-03T21:02:40.129Z,9.13
2018-06-03T21:05:08.658Z,8.60
2018-06-03T21:07:37.276Z,6.57
2018-06-03T21:10:05.884Z,14.97
2018-06-03T21:12:34.564Z,10.13
2018-06-03T21:15:03.084Z,7.03
2018-06-03T21:17:31.673Z,8.07
2018-06-03T21:20:00.181Z,9.47
2018-06-03T21:22:28.837Z,7.73
2018-06-03T21:24:57.416Z,10.80
2018-06-03T21:27:26.033Z,12.50
2018-06-03T21:29:54.586Z,8.93
2018-06-03T21:32:23.152Z,8.60
2018-06-03T21:34:51.733Z,8.10
2018-06-03T21:37:20.318Z,7.57
2018-06-03T21:39:48.881Z,5.83
2018-06-03T21:42:17.485Z,10.93
2018-06-03T21:44:46.105Z,6.37
2018-06-03T21:47:14.682Z,7.80
2018-06-03T21:49:43.243Z,7.47
2018-06-03T21:52:11.830Z,6.83
2018-06-03T21:54:40.453Z,7.20
2018-06-03T21:57:08.988Z,9.30
2018-06-03T21:59:37.483Z,6.73
2018-06-03T22:02:06.415Z,8.60
2018-06-03T22:04:35.037Z,7.87
2018-06-03T22:07:03.687Z,8.30
2018-06-03T22:09:32.217Z,6.40
2018-06-03T22:12:00.732Z,6.70
2018-06-03T22:14:29.260Z,6.23
2018-06-03T22:16:57.761Z,5.50
2018-06-03T22:19:26.453Z,5.20
2018-06-03T22:21:55.057Z,4.83
2018-06-03T22:24:23.684Z,5.23
2018-06-03T22:26:52.307Z,5.60
2018-06-03T22:29:20.887Z,8.63
2018-06-03T22:31:49.520Z,5.50
2018-06-03T22:34:18.125Z,9.97
2018-06-03T22:36:46.798Z,9.30
2018-06-03T22:39:18.316Z,6.00
2018-06-03T22:41:46.856Z,5.70
2018-06-03T22:44:15.409Z,7.67
2018-06-03T22:46:44.046Z,5.57
2018-06-03T22:49:12.640Z,5.87
2018-06-03T22:51:41.355Z,8.57
2018-06-03T22:54:09.920Z,6.30
2018-06-03T22:56:53.581Z,6.17
2018-06-03T22:59:22.249Z,6.00
2018-06-03T23:01:50.903Z,7.60
2018-06-03T23:04:19.519Z,8.57
2018-06-03T23:06:48.061Z,7.53
2018-06-03T23:09:16.646Z,7.60
2018-06-03T23:11:45.297Z,6.80
2018-06-03T23:14:13.843Z,6.60
2018-06-03T23:16:42.418Z,8.53
2018-06-03T23:19:10.981Z,7.47
2018-06-03T23:21:39.555Z,6.37
2018-06-03T23:24:08.155Z,8.27
2018-06-03T23:26:36.716Z,9.07
2018-06-03T23:29:05.361Z,8.97
2018-06-03T23:31:33.941Z,8.27
2018-06-03T23:34:02.488Z,9.47
2018-06-03T23:36:31.069Z,7.30
2018-06-03T23:38:59.734Z,7.40
2018-06-03T23:41:28.352Z,8.67
2018-06-03T23:43:57.033Z,10.70
2018-06-03T23:46:25.677Z,7.77
2018-06-03T23:48:54.289Z,7.90
2018-06-03T23:51:22.866Z,9.33
2018-06-03T23:53:51.456Z,7.37
2018-06-03T23:56:20.056Z,9.00
2018-06-03T23:58:48.630Z,7.93
